Flight Briefing for CPX309

Departure Arrival
Guam International Airport (PGUM)
Click to view FAA NOTAMS
Tokyo-Narita International Airport (RJAA)
Click to view FAA NOTAMS
Departure Time Arrival Time
N/A N/A
Aircraft Distance
B767-300BDSF 849nm
Departure METAR Arrival METAR
PGUM 260854Z 07012KT 10SM CLR 27/23 A2996 RMK AO2 SLP138 T02720228 53009 RJAA 260930Z 29003KT 260V320 9999 FEW020 10/07 Q1006 NOSIG RMK 1CU020 A2971
Suggested Route
UNZ TERYY G205 TEGOD A337 DAGDA G223 ADKAK Y819 CATCH Y815 KETAR Y811 VEPOX Y811 MELON


View recent IFR Routes data
Notes



Charts and Procedures

Charts for PGUM
No chart available
Charts for RJAA
No chart available

Windy.com Weather Map